Time;durP1;ratioP1;P1;durP2;ratioP2;P2;SDS_P1;SDS_P2;PMS_P1;PMS_P2;Temp;Humidity;BMP_temperature;BMP_pressure;BME280_temperature;BME280_humidity;BME280_pressure;Samples;Min_cycle;Max_cycle;Signal;HPM_P1;HPM_P2
2024/01/12 00:01:55;;;;;;;2.10;1.95;;;;;;;-0.95;72.97;100291.28;5053579;28;20041;-73
2024/01/12 00:04:24;;;;;;;0.85;0.85;;;;;;;-0.94;72.83;100285.50;5053299;28;20045;-74
2024/01/12 00:06:55;;;;;;;1.15;1.13;;;;;;;-0.96;73.15;100289.59;5053385;28;20041;-72
2024/01/12 00:09:25;;;;;;;1.75;1.65;;;;;;;-0.98;73.11;100286.97;5053666;28;20045;-73
2024/01/12 00:11:54;;;;;;;2.13;1.92;;;;;;;-0.98;73.25;100278.59;5035246;28;20048;-71
2024/01/12 00:14:23;;;;;;;0.88;0.88;;;;;;;-0.95;73.22;100278.75;5053330;28;20041;-73
2024/01/12 00:16:53;;;;;;;0.90;0.90;;;;;;;-0.92;73.54;100287.31;5051964;28;20411;-73
2024/01/12 00:19:23;;;;;;;1.15;1.10;;;;;;;-0.94;73.38;100283.00;5052653;28;20391;-72
2024/01/12 00:21:52;;;;;;;3.92;2.38;;;;;;;-0.92;73.48;100292.34;5053249;28;20077;-73
2024/01/12 00:24:21;;;;;;;1.92;1.83;;;;;;;-0.90;73.74;100289.91;5053675;28;20045;-73
2024/01/12 00:26:50;;;;;;;0.50;0.50;;;;;;;-0.91;73.32;100293.19;5052180;28;20506;-73
2024/01/12 00:29:20;;;;;;;0.68;0.68;;;;;;;-0.92;73.46;100297.34;5052114;28;20497;-72
2024/01/12 00:31:48;;;;;;;1.40;1.30;;;;;;;-0.99;73.50;100285.28;5035450;28;20558;-73
2024/01/12 00:34:19;;;;;;;1.70;1.27;;;;;;;-0.94;73.46;100310.56;5052086;28;20045;-72
2024/01/12 00:36:48;;;;;;;0.60;0.60;;;;;;;-0.93;73.47;100312.28;5053219;28;20270;-73
2024/01/12 00:39:17;;;;;;;1.58;1.48;;;;;;;-0.92;73.49;100311.50;5053401;28;20049;-73
2024/01/12 00:41:50;;;;;;;0.50;0.50;;;;;;;-0.90;73.42;100320.81;5052242;28;20506;-73
2024/01/12 00:44:21;;;;;;;1.08;1.08;;;;;;;-0.94;73.49;100313.06;5051937;28;20126;-72
2024/01/12 00:46:51;;;;;;;0.93;0.93;;;;;;;-0.92;73.45;100322.38;5052069;28;20076;-71
2024/01/12 00:49:22;;;;;;;0.95;0.95;;;;;;;-0.93;73.44;100329.81;5053282;28;20045;-71
2024/01/12 00:51:51;;;;;;;1.10;1.10;;;;;;;-0.94;73.46;100323.97;5053134;28;20132;-72
2024/01/12 00:54:26;;;;;;;0.87;0.87;;;;;;;-0.94;73.61;100328.09;5052941;28;20044;-72
2024/01/12 00:56:55;;;;;;;2.25;1.92;;;;;;;-0.95;73.60;100331.38;5053245;28;20049;-72
2024/01/12 00:59:24;;;;;;;3.15;2.10;;;;;;;-0.98;73.81;100336.19;5052825;28;20041;-73
2024/01/12 01:01:57;;;;;;;2.92;1.67;;;;;;;-0.97;74.01;100338.81;5053538;28;20395;-72
2024/01/12 01:04:28;;;;;;;0.50;0.50;;;;;;;-0.95;73.62;100336.38;5051532;28;20511;-73
2024/01/12 01:06:58;;;;;;;8.68;3.40;;;;;;;-0.97;73.76;100343.81;5053247;28;20041;-71
2024/01/12 01:09:27;;;;;;;0.57;0.57;;;;;;;-0.98;73.94;100341.22;5051822;28;20056;-72
2024/01/12 01:11:56;;;;;;;0.60;0.60;;;;;;;-0.99;73.73;100334.50;5052983;28;20136;-72
2024/01/12 01:14:25;;;;;;;1.55;0.93;;;;;;;-0.97;74.07;100327.91;5056274;28;20487;-72
2024/01/12 01:16:54;;;;;;;0.88;0.88;;;;;;;-0.97;73.87;100332.94;5056694;28;20045;-73
2024/01/12 01:19:23;;;;;;;3.72;1.67;;;;;;;-0.92;74.02;100336.56;5055174;28;20106;-73
2024/01/12 01:21:54;;;;;;;3.47;2.47;;;;;;;-0.93;73.84;100340.69;5071973;28;20403;-73
2024/01/12 01:24:27;;;;;;;1.05;1.05;;;;;;;-0.93;74.19;100344.84;5055216;28;20430;-73
2024/01/12 01:26:56;;;;;;;0.50;0.50;;;;;;;-0.92;74.00;100337.41;5056182;28;20491;-73
2024/01/12 01:29:25;;;;;;;3.15;1.77;;;;;;;-0.90;73.88;100340.00;5055449;28;20132;-72
2024/01/12 01:31:54;;;;;;;0.43;0.43;;;;;;;-0.93;73.99;100342.31;5056268;28;20124;-73
2024/01/12 01:34:22;;;;;;;0.80;0.80;;;;;;;-0.95;73.89;100344.75;5054976;28;20056;-72
2024/01/12 01:36:53;;;;;;;0.60;0.60;;;;;;;-0.95;74.05;100342.25;5056250;28;20283;-72
2024/01/12 01:39:23;;;;;;;3.80;1.30;;;;;;;-0.95;74.11;100336.38;5056386;28;20045;-72
2024/01/12 01:41:52;;;;;;;2.50;2.35;;;;;;;-0.95;74.22;100342.25;5055939;28;20045;-72
2024/01/12 01:44:21;;;;;;;0.95;0.95;;;;;;;-0.95;74.09;100336.38;5055030;28;20045;-71
2024/01/12 01:46:50;;;;;;;0.68;0.68;;;;;;;-0.94;74.13;100338.13;5055985;28;20107;-73
2024/01/12 01:49:20;;;;;;;1.15;1.05;;;;;;;-0.93;74.34;100322.28;5054431;28;20506;-72
2024/01/12 01:51:49;;;;;;;1.13;1.10;;;;;;;-0.92;74.13;100322.38;5055911;28;20075;-72
2024/01/12 01:54:19;;;;;;;4.00;1.80;;;;;;;-0.89;74.07;100329.22;5055956;28;20039;-73
2024/01/12 01:56:50;;;;;;;1.00;1.00;;;;;;;-0.89;74.15;100336.72;5056203;28;20137;-73
2024/01/12 01:59:19;;;;;;;0.95;0.85;;;;;;;-0.92;73.91;100329.03;5055921;28;20099;-73
2024/01/12 02:01:49;;;;;;;1.02;1.02;;;;;;;-0.93;73.90;100334.81;5055831;28;20071;-72
2024/01/12 02:04:18;;;;;;;1.37;1.27;;;;;;;-0.93;74.30;100329.81;5055457;28;20056;-73
2024/01/12 02:06:49;;;;;;;2.05;1.90;;;;;;;-0.94;74.52;100323.97;5055390;28;20073;-73
2024/01/12 02:09:18;;;;;;;0.73;0.73;;;;;;;-0.91;74.77;100323.25;5055399;28;20072;-72
2024/01/12 02:11:47;;;;;;;0.75;0.75;;;;;;;-0.89;74.95;100326.72;5055553;28;20040;-72
2024/01/12 02:14:17;;;;;;;0.50;0.50;;;;;;;-0.87;74.90;100330.16;5055213;28;20454;-71
2024/01/12 02:16:47;;;;;;;0.38;0.38;;;;;;;-0.85;74.80;100326.09;5055513;28;20068;-71
2024/01/12 02:19:16;;;;;;;0.75;0.75;;;;;;;-0.81;74.75;100325.47;5055179;28;20041;-72
2024/01/12 02:21:46;;;;;;;0.70;0.70;;;;;;;-0.77;74.92;100327.38;5037556;28;20044;-71
2024/01/12 02:24:16;;;;;;;0.80;0.80;;;;;;;-0.83;74.86;100317.00;5055421;28;20045;-69
2024/01/12 02:26:44;;;;;;;0.60;0.60;;;;;;;-0.77;74.97;100337.41;5055446;28;20049;-69
2024/01/12 02:29:14;;;;;;;0.93;0.93;;;;;;;-0.76;75.02;100339.09;5055236;28;20127;-72
2024/01/12 02:31:43;;;;;;;0.82;0.82;;;;;;;-0.77;75.10;100334.91;5054926;28;20116;-71
2024/01/12 02:34:12;;;;;;;0.70;0.70;;;;;;;-0.84;75.40;100320.31;5054928;28;20506;-70
2024/01/12 02:36:41;;;;;;;0.43;0.43;;;;;;;-0.88;75.43;100318.41;5055223;28;20037;-72
2024/01/12 02:39:11;;;;;;;0.50;0.50;;;;;;;-0.80;75.07;100337.22;5055012;28;20395;-73
2024/01/12 02:41:40;;;;;;;2.40;2.22;;;;;;;-0.81;75.07;100340.50;5054141;28;20118;-72
2024/01/12 02:44:09;;;;;;;0.52;0.52;;;;;;;-0.84;75.46;100340.34;5055018;28;20095;-71
2024/01/12 02:46:38;;;;;;;0.70;0.70;;;;;;;-0.94;75.38;100328.09;5053767;28;20514;-71
2024/01/12 02:49:08;;;;;;;0.60;0.60;;;;;;;-0.88;75.62;100343.44;5054832;28;20037;-72
2024/01/12 02:51:37;;;;;;;0.50;0.50;;;;;;;-0.92;75.65;100341.56;5053438;28;20045;-72
2024/01/12 02:54:06;;;;;;;1.20;1.20;;;;;;;-0.92;75.69;100351.59;5036509;28;20045;-72
2024/01/12 02:56:37;;;;;;;2.10;2.00;;;;;;;-1.01;75.91;100336.06;5054757;28;20550;-72
2024/01/12 02:59:06;;;;;;;0.50;0.50;;;;;;;-0.94;76.04;100338.13;5054385;28;20049;-71
2024/01/12 03:01:35;;;;;;;2.10;2.00;;;;;;;-0.95;76.10;100353.91;5054710;28;20094;-73
2024/01/12 03:04:04;;;;;;;0.95;0.95;;;;;;;-0.94;76.48;100353.16;5036383;28;20064;-73
2024/01/12 03:06:33;;;;;;;3.28;1.50;;;;;;;-0.97;76.42;100348.81;5053578;28;20103;-72
2024/01/12 03:09:02;;;;;;;0.90;0.90;;;;;;;-1.01;76.53;100346.06;5054660;28;20037;-72
2024/01/12 03:11:31;;;;;;;0.60;0.60;;;;;;;-1.02;76.34;100344.34;5053328;28;20048;-72
2024/01/12 03:14:01;;;;;;;1.10;1.10;;;;;;;-1.00;76.67;100352.78;5052718;28;20135;-72
2024/01/12 03:16:30;;;;;;;3.55;1.40;;;;;;;-1.03;76.65;100352.66;5053252;28;20052;-73
2024/01/12 03:18:59;;;;;;;0.60;0.60;;;;;;;-1.07;76.65;100346.59;5054566;28;20499;-72
2024/01/12 03:21:29;;;;;;;1.05;0.80;;;;;;;-1.09;76.76;100337.25;5054362;28;20060;-73
2024/01/12 03:23:57;;;;;;;1.90;1.63;;;;;;;-1.03;77.18;100340.13;5053956;28;20483;-71
2024/01/12 03:26:26;;;;;;;1.65;1.33;;;;;;;-1.00;77.01;100347.78;5054234;28;20282;-72
2024/01/12 03:28:55;;;;;;;1.15;1.13;;;;;;;-1.05;77.15;100339.16;5054142;28;20041;-72
2024/01/12 03:31:26;;;;;;;0.47;0.47;;;;;;;-1.05;77.22;100339.16;5054178;28;20044;-72
2024/01/12 03:33:55;;;;;;;0.63;0.63;;;;;;;-1.01;77.53;100343.56;5068955;28;20040;-72
2024/01/12 03:36:23;;;;;;;1.42;1.33;;;;;;;-1.01;77.47;100351.09;5053612;28;20040;-73
2024/01/12 03:38:54;;;;;;;3.70;1.52;;;;;;;-1.02;77.36;100349.34;5052384;28;20045;-73
2024/01/12 03:41:23;;;;;;;0.40;0.40;;;;;;;-1.05;77.59;100344.16;5053620;28;20053;-72
2024/01/12 03:43:52;;;;;;;0.80;0.80;;;;;;;-1.40;77.58;100277.97;5053991;28;20041;-72
2024/01/12 03:46:25;;;;;;;2.60;1.65;;;;;;;-1.05;77.56;100334.13;5053929;28;20067;-72
2024/01/12 03:48:55;;;;;;;0.50;0.50;;;;;;;-0.98;77.80;100352.09;5054053;28;20558;-72
2024/01/12 03:51:24;;;;;;;2.13;1.98;;;;;;;-0.97;77.78;100345.44;5053823;28;20041;-72
2024/01/12 03:53:54;;;;;;;0.52;0.52;;;;;;;-0.99;77.93;100344.50;5053570;28;20578;-72
2024/01/12 03:56:22;;;;;;;0.70;0.70;;;;;;;-0.99;77.95;100342.00;5052518;28;20077;-73
2024/01/12 03:58:51;;;;;;;2.85;2.65;;;;;;;-0.98;77.96;100346.22;5036113;28;20491;-72
2024/01/12 04:01:21;;;;;;;2.05;1.75;;;;;;;-1.02;77.97;100344.34;5052245;28;20041;-71
2024/01/12 04:03:52;;;;;;;1.10;1.02;;;;;;;-0.95;78.11;100356.41;5053514;28;20060;-72
2024/01/12 04:06:21;;;;;;;0.40;0.40;;;;;;;-0.94;78.22;100356.53;5052729;28;20048;-72
2024/01/12 04:08:50;;;;;;;1.13;1.08;;;;;;;-0.98;78.41;100348.72;5052467;28;20094;-72
2024/01/12 04:11:23;;;;;;;1.10;0.85;;;;;;;-0.97;78.55;100347.97;5052206;28;20053;-71
2024/01/12 04:13:53;;;;;;;0.77;0.77;;;;;;;-0.89;78.43;100361.78;5053756;28;20418;-72
2024/01/12 04:16:22;;;;;;;0.40;0.40;;;;;;;-0.88;78.47;100364.34;5069080;28;20053;-72
2024/01/12 04:18:52;;;;;;;0.35;0.35;;;;;;;-0.86;78.66;100361.94;5035515;28;20430;-72
2024/01/12 04:21:21;;;;;;;0.82;0.82;;;;;;;-0.88;78.55;100353.47;5053541;28;20060;-72
2024/01/12 04:23:50;;;;;;;0.60;0.60;;;;;;;-0.82;78.58;100363.84;5053139;28;20603;-73
2024/01/12 04:26:19;;;;;;;;;;;;;;;-0.83;78.45;100362.97;5035942;28;20140;-73
2024/01/12 04:28:48;;;;;;;0.70;0.70;;;;;;;-0.85;78.49;100363.66;5053476;28;19920;-72
2024/01/12 04:31:17;;;;;;;2.17;2.08;;;;;;;-0.89;78.65;100371.81;5053205;28;20037;-72
2024/01/12 04:33:47;;;;;;;0.40;0.40;;;;;;;-0.95;78.53;100371.44;5053212;28;20034;-73
2024/01/12 04:36:20;;;;;;;8.82;3.53;;;;;;;-0.93;78.60;100380.78;5053155;28;20474;-73
2024/01/12 04:38:50;;;;;;;0.65;0.65;;;;;;;-0.93;78.61;100373.25;5068876;28;20056;-72
2024/01/12 04:41:18;;;;;;;7.13;2.22;;;;;;;-1.04;78.59;100360.91;5052026;28;20072;-72
2024/01/12 04:43:47;;;;;;;0.43;0.43;;;;;;;-0.98;78.43;100386.28;5035359;28;20037;-73
2024/01/12 04:46:16;;;;;;;0.70;0.70;;;;;;;-1.04;78.53;100380.97;5036099;28;20387;-72
2024/01/12 04:48:46;;;;;;;2.40;1.63;;;;;;;-1.06;78.88;100380.00;5055675;28;20499;-73
2024/01/12 04:51:14;;;;;;;1.42;1.35;;;;;;;-1.08;78.68;100389.09;5057420;28;20037;-72
2024/01/12 04:53:45;;;;;;;2.97;2.15;;;;;;;-1.14;78.59;100389.59;5056919;28;20037;-72
2024/01/12 04:56:14;;;;;;;0.68;0.68;;;;;;;-1.14;78.75;100393.72;5056929;28;20434;-72
2024/01/12 04:58:42;;;;;;;0.60;0.60;;;;;;;-1.14;78.84;100391.22;5057076;28;20115;-73
2024/01/12 05:01:11;;;;;;;0.60;0.60;;;;;;;-1.15;78.96;100397.03;5056968;28;20037;-73
2024/01/12 05:03:43;;;;;;;0.70;0.70;;;;;;;-1.15;78.89;100397.03;5038687;28;20542;-73
2024/01/12 05:06:12;;;;;;;1.95;1.67;;;;;;;-1.12;79.01;100402.19;5057199;28;20045;-72
2024/01/12 05:08:41;;;;;;;0.85;0.85;;;;;;;-1.16;79.14;100395.28;5056854;28;20372;-73
2024/01/12 05:11:11;;;;;;;3.10;2.80;;;;;;;-1.08;79.07;100406.63;5055679;28;20049;-73
2024/01/12 05:13:40;;;;;;;0.40;0.40;;;;;;;-1.07;79.10;100405.81;5055413;28;20051;-72
2024/01/12 05:16:09;;;;;;;1.37;1.27;;;;;;;-1.09;79.06;100408.25;5056698;28;20033;-72
2024/01/12 05:18:38;;;;;;;0.50;0.50;;;;;;;-1.07;79.32;100410.81;5056358;28;20041;-73
2024/01/12 05:21:08;;;;;;;0.50;0.50;;;;;;;-1.02;78.92;100409.44;5039011;28;20051;-72
2024/01/12 05:23:39;;;;;;;0.70;0.70;;;;;;;-1.11;79.40;100399.78;5056566;28;20072;-73
2024/01/12 05:26:08;;;;;;;3.03;2.15;;;;;;;-0.99;79.01;100415.50;5055361;28;20048;-72
2024/01/12 05:28:38;;;;;;;2.83;2.63;;;;;;;-0.99;79.04;100414.63;5056185;28;20048;-72
2024/01/12 05:31:10;;;;;;;2.80;1.98;;;;;;;-0.98;79.09;100411.34;5056720;28;20266;-73
2024/01/12 05:33:39;;;;;;;5.50;2.83;;;;;;;-0.98;79.12;100411.34;5055990;28;20506;-72
2024/01/12 05:36:08;;;;;;;1.83;1.73;;;;;;;-0.91;79.21;100415.94;5056355;28;20044;-71
2024/01/12 05:38:38;;;;;;;0.65;0.65;;;;;;;-0.86;79.14;100430.44;5056040;28;20052;-73
2024/01/12 05:41:08;;;;;;;0.50;0.50;;;;;;;-0.83;79.18;100422.22;5056600;28;20065;-71
2024/01/12 05:43:38;;;;;;;1.05;1.05;;;;;;;-0.79;79.15;100427.50;5056106;28;20037;-72
2024/01/12 05:46:08;;;;;;;1.73;1.60;;;;;;;-0.75;79.46;100436.06;5056156;28;20098;-72
2024/01/12 05:48:36;;;;;;;0.88;0.88;;;;;;;-0.72;79.28;100433.72;5055764;28;20052;-73
2024/01/12 05:51:06;;;;;;;0.90;0.90;;;;;;;-0.71;79.20;100436.31;5054738;28;20052;-72
2024/01/12 05:53:35;;;;;;;1.33;1.23;;;;;;;-0.68;79.17;100438.13;5055604;28;20041;-71
2024/01/12 05:56:05;;;;;;;0.52;0.52;;;;;;;-0.70;79.05;100439.69;5055547;28;20278;-73
2024/01/12 05:58:34;;;;;;;2.47;2.28;;;;;;;-1.11;78.95;100364.72;5054304;28;20052;-73
2024/01/12 06:01:04;;;;;;;8.20;4.63;;;;;;;-0.75;79.09;100429.41;5055834;28;20049;-73
2024/01/12 06:03:33;;;;;;;0.50;0.50;;;;;;;-0.76;79.04;100434.31;5070953;28;20053;-73
2024/01/12 06:06:04;;;;;;;3.00;2.80;;;;;;;-0.77;79.26;100442.63;5054547;28;20476;-72
2024/01/12 06:08:33;;;;;;;5.00;1.65;;;;;;;-0.79;79.08;100439.16;5055460;28;20132;-72
2024/01/12 06:11:02;;;;;;;1.35;1.25;;;;;;;-0.77;78.99;100442.63;5055462;28;20453;-73
2024/01/12 06:13:31;;;;;;;0.60;0.60;;;;;;;-0.79;78.94;100444.16;5055508;28;20033;-73
2024/01/12 06:16:00;;;;;;;1.42;1.33;;;;;;;-0.83;78.68;100447.28;5055247;28;20033;-73
2024/01/12 06:18:31;;;;;;;0.50;0.50;;;;;;;-0.83;78.91;100452.28;5055191;28;20041;-73
2024/01/12 06:21:00;;;;;;;1.60;1.50;;;;;;;-0.90;78.78;100440.19;5055982;28;20045;-73
2024/01/12 06:23:29;;;;;;;0.60;0.60;;;;;;;-0.89;78.65;100441.94;5055467;28;20160;-72
2024/01/12 06:25:58;;;;;;;0.80;0.80;;;;;;;-0.93;78.69;100440.03;5055077;28;20131;-73
2024/01/12 06:28:27;;;;;;;0.65;0.65;;;;;;;-0.94;78.86;100448.34;5055072;28;20045;-72
2024/01/12 06:30:56;;;;;;;1.00;1.00;;;;;;;-0.96;78.68;100447.38;5054878;28;20041;-73
2024/01/12 06:33:25;;;;;;;3.22;1.80;;;;;;;-0.99;78.56;100449.72;5055474;28;20667;-72
2024/01/12 06:35:55;;;;;;;1.13;1.10;;;;;;;-1.00;78.39;100452.97;5055020;28;20132;-73
2024/01/12 06:38:24;;;;;;;1.88;1.75;;;;;;;-1.06;78.48;100442.63;5055067;28;20057;-72
2024/01/12 06:40:53;;;;;;;1.48;1.05;;;;;;;-1.08;78.46;100449.19;5055055;28;20069;-72
2024/01/12 06:43:22;;;;;;;2.85;2.65;;;;;;;-1.09;78.48;100452.44;5037137;28;20118;-72
2024/01/12 06:45:51;;;;;;;0.80;0.80;;;;;;;-1.16;77.96;100430.34;5054986;28;20041;-73
2024/01/12 06:48:20;;;;;;;1.75;1.65;;;;;;;-1.06;78.66;100455.16;5054941;28;20040;-73
2024/01/12 06:50:49;;;;;;;1.63;1.53;;;;;;;-1.06;78.34;100452.63;5054975;28;20072;-72
2024/01/12 06:53:20;;;;;;;0.93;0.93;;;;;;;-1.09;78.13;100462.47;5054789;28;20037;-73
2024/01/12 06:55:49;;;;;;;1.75;1.65;;;;;;;-1.12;77.98;100462.28;5054591;28;20051;-72
2024/01/12 06:58:18;;;;;;;0.73;0.73;;;;;;;-1.14;78.18;100471.34;5054630;28;20037;-72
2024/01/12 07:00:47;;;;;;;6.38;3.15;;;;;;;-0.95;78.31;100466.63;5036547;28;20376;-73
2024/01/12 07:03:16;;;;;;;4.57;4.20;;;;;;;-0.49;78.52;100470.94;5054628;28;20037;-73
2024/01/12 07:05:45;;;;;;;1.65;1.50;;;;;;;-0.06;77.77;100470.00;5054151;28;20829;-73
2024/01/12 07:08:16;;;;;;;2.35;1.25;;;;;;;0.05;77.35;100472.22;5054817;28;20041;-73
2024/01/12 07:10:47;;;;;;;17.83;2.15;;;;;;;0.03;76.59;100477.16;5053730;28;20056;-72
2024/01/12 07:13:16;;;;;;;0.77;0.77;;;;;;;-0.08;76.63;100466.56;5052705;28;20045;-73
2024/01/12 07:15:44;;;;;;;0.93;0.93;;;;;;;-0.04;76.21;100482.63;5054238;28;20048;-73
2024/01/12 07:18:13;;;;;;;4.43;2.05;;;;;;;0.16;75.87;100478.66;5054310;28;20072;-73
2024/01/12 07:20:42;;;;;;;2.22;2.03;;;;;;;0.70;75.64;100484.03;5069772;28;20041;-73
2024/01/12 07:23:12;;;;;;;1.70;1.60;;;;;;;1.19;74.48;100478.19;5053996;28;20487;-73
2024/01/12 07:25:41;;;;;;;1.08;0.98;;;;;;;1.50;73.72;100469.59;5053989;28;20047;-72
2024/01/12 07:28:11;;;;;;;0.98;0.98;;;;;;;1.50;72.74;100470.44;5053868;28;20036;-73
2024/01/12 07:30:40;;;;;;;1.30;1.20;;;;;;;1.47;71.13;100479.50;5053816;28;20495;-72
2024/01/12 07:33:09;;;;;;;2.17;1.08;;;;;;;1.37;70.60;100487.41;5053722;28;20037;-72
2024/01/12 07:35:39;;;;;;;2.05;1.95;;;;;;;1.36;70.43;100481.50;5053933;28;20071;-71
2024/01/12 07:38:07;;;;;;;1.80;1.70;;;;;;;1.32;70.21;100488.03;5053747;28;20069;-71
2024/01/12 07:40:37;;;;;;;2.47;2.20;;;;;;;1.34;69.43;100499.00;5053973;28;20049;-71
2024/01/12 07:43:06;;;;;;;0.50;0.50;;;;;;;1.44;69.88;100494.44;5053957;28;20045;-71
2024/01/12 07:45:36;;;;;;;0.50;0.50;;;;;;;1.57;68.95;100501.78;5054207;28;20094;-71
2024/01/12 07:48:05;;;;;;;1.65;1.35;;;;;;;1.63;69.49;100502.94;5052768;28;20463;-71
2024/01/12 07:50:34;;;;;;;2.38;2.20;;;;;;;1.66;68.68;100502.22;5053529;28;20041;-72
2024/01/12 07:53:04;;;;;;;0.77;0.77;;;;;;;1.63;68.25;100502.09;5053891;28;20076;-72
2024/01/12 07:55:33;;;;;;;2.17;1.60;;;;;;;1.62;67.98;100505.38;5053584;28;20052;-71
2024/01/12 07:58:02;;;;;;;1.20;0.75;;;;;;;1.64;68.11;100508.84;5069254;28;20151;-71
2024/01/12 08:00:31;;;;;;;0.50;0.50;;;;;;;1.76;68.15;100515.31;5053721;28;20039;-70
2024/01/12 08:03:02;;;;;;;1.73;1.60;;;;;;;1.89;67.93;100512.59;5053694;28;20043;-71
2024/01/12 08:05:31;;;;;;;0.73;0.73;;;;;;;1.93;67.69;100509.44;5052965;28;20088;-71
2024/01/12 08:08:02;;;;;;;1.08;0.90;;;;;;;1.99;66.77;100509.69;5053653;28;20099;-72
2024/01/12 08:10:31;;;;;;;1.05;1.05;;;;;;;2.03;66.30;100515.75;5053974;28;20076;-72
2024/01/12 08:13:00;;;;;;;0.63;0.63;;;;;;;2.06;65.99;100520.94;5053440;28;20029;-71
2024/01/12 08:15:29;;;;;;;1.43;1.33;;;;;;;2.14;65.89;100518.75;5053218;28;20040;-71
2024/01/12 08:17:58;;;;;;;;;;;;;;;2.19;65.41;100518.16;5053959;28;20045;-72
2024/01/12 08:20:28;;;;;;;0.95;0.95;;;;;;;2.22;64.87;100527.53;5053437;28;19921;-71
2024/01/12 08:22:57;;;;;;;0.70;0.70;;;;;;;2.25;65.31;100528.53;5056090;28;20503;-71
2024/01/12 08:25:26;;;;;;;5.53;1.50;;;;;;;2.34;65.55;100530.59;5057526;28;20072;-70
2024/01/12 08:27:55;;;;;;;1.48;1.38;;;;;;;2.50;64.91;100538.91;5057820;28;20470;-70
2024/01/12 08:30:24;;;;;;;2.63;2.43;;;;;;;2.57;64.34;100535.88;5056101;28;20045;-70
2024/01/12 08:32:55;;;;;;;6.43;1.83;;;;;;;2.59;64.37;100541.00;5057139;28;20731;-70
2024/01/12 08:35:24;;;;;;;1.20;1.13;;;;;;;2.63;63.83;100543.72;5057141;28;20079;-70
2024/01/12 08:37:54;;;;;;;2.22;2.05;;;;;;;2.68;63.51;100542.28;5057440;28;20037;-70
2024/01/12 08:40:23;;;;;;;0.60;0.60;;;;;;;2.68;62.96;100547.31;5057721;28;20483;-69
2024/01/12 08:42:53;;;;;;;2.93;2.73;;;;;;;2.68;63.27;100542.28;5057301;28;20044;-70
2024/01/12 08:45:22;;;;;;;1.35;1.25;;;;;;;2.68;62.89;100548.97;5057086;28;20045;-68
2024/01/12 08:47:51;;;;;;;0.57;0.57;;;;;;;2.75;62.21;100555.13;5056068;28;20039;-71
2024/01/12 08:50:20;;;;;;;0.40;0.40;;;;;;;2.83;62.47;100551.28;5057228;28;20060;-70
2024/01/12 08:52:48;;;;;;;0.50;0.50;;;;;;;2.99;62.68;100558.72;5056851;28;20098;-70
2024/01/12 08:55:19;;;;;;;0.40;0.40;;;;;;;3.13;61.92;100557.66;5056788;28;20443;-71
2024/01/12 08:57:48;;;;;;;0.68;0.68;;;;;;;3.26;61.97;100549.81;5057007;28;20068;-71
2024/01/12 09:00:17;;;;;;;0.87;0.87;;;;;;;3.46;61.73;100554.00;5056887;28;20056;-70
2024/01/12 09:02:46;;;;;;;2.55;1.35;;;;;;;3.53;61.18;100560.19;5056616;28;20049;-70
2024/01/12 09:05:15;;;;;;;0.43;0.43;;;;;;;3.56;60.48;100557.78;5055235;28;20056;-70
2024/01/12 09:07:44;;;;;;;0.63;0.63;;;;;;;3.70;60.71;100562.59;5056598;28;20481;-70
2024/01/12 09:10:13;;;;;;;2.37;2.07;;;;;;;3.63;59.83;100564.78;5056786;28;20044;-71
2024/01/12 09:12:43;;;;;;;0.30;0.30;;;;;;;3.60;59.96;100568.06;5055565;28;20037;-71
2024/01/12 09:15:13;;;;;;;1.10;1.10;;;;;;;3.28;59.72;100573.44;5056676;28;20040;-70
2024/01/12 09:17:42;;;;;;;3.20;2.25;;;;;;;3.16;60.10;100575.44;5056623;28;20093;-70
2024/01/12 09:20:12;;;;;;;1.27;1.17;;;;;;;2.99;61.09;100578.88;5055442;28;20140;-70
2024/01/12 09:22:40;;;;;;;;;;;;;;;2.87;60.67;100578.34;5056956;28;20033;-70
2024/01/12 09:25:09;;;;;;;0.93;0.93;;;;;;;2.84;61.29;100584.13;5056445;28;19921;-70
2024/01/12 09:27:38;;;;;;;1.20;1.20;;;;;;;2.72;61.08;100579.41;5055052;28;20384;-71
2024/01/12 09:30:09;;;;;;;1.90;1.13;;;;;;;2.68;61.76;100581.72;5056363;28;20037;-71
2024/01/12 09:32:38;;;;;;;0.65;0.65;;;;;;;2.68;61.62;100592.66;5056431;28;20045;-72
2024/01/12 09:35:08;;;;;;;11.75;2.67;;;;;;;2.73;62.38;100583.63;5055174;28;20041;-71
2024/01/12 09:37:37;;;;;;;0.90;0.90;;;;;;;2.78;62.25;100583.00;5056024;28;20506;-70
2024/01/12 09:40:07;;;;;;;0.32;0.32;;;;;;;2.71;62.20;100585.22;5056214;28;20053;-71
2024/01/12 09:42:42;;;;;;;0.82;0.82;;;;;;;2.74;62.86;100589.53;5056175;28;20094;-70
2024/01/12 09:45:15;;;;;;;0.57;0.57;;;;;;;2.57;62.42;100577.84;5056216;28;20049;-71
2024/01/12 09:47:51;;;;;;;0.70;0.70;;;;;;;2.58;63.12;100584.63;5055964;28;20381;-71
2024/01/12 09:50:21;;;;;;;0.55;0.55;;;;;;;2.52;63.32;100575.09;5071490;28;20140;-71
2024/01/12 09:52:52;;;;;;;0.73;0.73;;;;;;;2.50;62.45;100586.78;5055953;28;20033;-71
2024/01/12 09:55:20;;;;;;;;;;;;;;;2.49;63.03;100579.16;5071208;28;20049;-71
2024/01/12 09:57:49;;;;;;;0.40;0.40;;;;;;;2.43;63.94;100574.69;5055462;28;20407;-72
2024/01/12 10:00:23;;;;;;;0.43;0.43;;;;;;;2.40;64.13;100569.50;5055816;28;20513;-71
2024/01/12 10:02:52;;;;;;;1.50;1.40;;;;;;;2.39;63.49;100572.84;5071263;28;20328;-71
2024/01/12 10:05:22;;;;;;;0.88;0.88;;;;;;;2.40;63.96;100569.50;5070757;28;20052;-72
2024/01/12 10:07:53;;;;;;;4.28;3.63;;;;;;;2.45;64.46;100572.25;5055692;28;20048;-69
2024/01/12 10:10:23;;;;;;;0.93;0.65;;;;;;;2.43;64.01;100564.63;5054246;28;20071;-71
2024/01/12 10:12:54;;;;;;;0.88;0.88;;;;;;;2.41;64.11;100568.72;5055656;28;20048;-71
2024/01/12 10:15:26;;;;;;;2.30;1.73;;;;;;;2.40;63.97;100561.97;5055283;28;20041;-71
2024/01/12 10:17:55;;;;;;;0.95;0.95;;;;;;;2.31;63.51;100533.84;5055434;28;20052;-71
2024/01/12 10:20:24;;;;;;;2.42;1.52;;;;;;;2.44;63.13;100561.31;5055428;28;20044;-71
2024/01/12 10:22:57;;;;;;;;;;;;;;;2.45;63.64;100552.94;5055629;28;20041;-72
2024/01/12 10:25:26;;;;;;;0.98;0.93;;;;;;;2.45;63.79;100550.44;5055311;28;19971;-71
2024/01/12 10:27:56;;;;;;;1.38;1.27;;;;;;;2.42;63.44;100547.81;5055282;28;20045;-71
2024/01/12 10:30:26;;;;;;;;;;;;;;;2.43;63.13;100549.50;5055991;28;20545;-71
2024/01/12 10:32:56;;;;;;;1.42;1.33;;;;;;;2.03;63.21;100490.56;5055177;28;19920;-72
2024/01/12 10:35:24;;;;;;;0.70;0.70;;;;;;;2.41;63.35;100548.59;5055232;28;20041;-71
2024/01/12 10:37:59;;;;;;;1.15;1.13;;;;;;;2.39;63.63;100552.69;5054920;28;20361;-72
2024/01/12 10:40:28;;;;;;;0.40;0.40;;;;;;;2.44;63.57;100543.69;5055146;28;20098;-71
2024/01/12 10:42:58;;;;;;;0.90;0.90;;;;;;;2.45;64.01;100542.88;5054926;28;20029;-72
2024/01/12 10:45:30;;;;;;;1.10;0.95;;;;;;;2.50;63.73;100548.13;5053563;28;20049;-72
2024/01/12 10:48:04;;;;;;;0.60;0.60;;;;;;;2.45;63.72;100537.84;5055272;28;20041;-72
2024/01/12 10:50:40;;;;;;;0.47;0.47;;;;;;;2.47;63.17;100546.31;5055060;28;20045;-71
2024/01/12 10:53:15;;;;;;;0.40;0.40;;;;;;;2.37;62.74;100524.06;5054507;28;20051;-71
2024/01/12 10:55:54;;;;;;;0.55;0.55;;;;;;;2.53;62.96;100539.06;5054762;28;20059;-72
2024/01/12 10:58:24;;;;;;;0.20;0.20;;;;;;;2.27;62.41;100475.72;5054497;28;20127;-71
2024/01/12 11:00:54;;;;;;;;;;;;;;;2.64;62.04;100539.50;5055095;28;20127;-71
2024/01/12 11:03:24;;;;;;;0.43;0.43;;;;;;;2.48;62.24;100532.94;5054254;28;20397;-71
2024/01/12 11:05:54;;;;;;;0.40;0.40;;;;;;;2.45;61.45;100534.44;5054428;28;20566;-72
2024/01/12 11:08:26;;;;;;;0.60;0.60;;;;;;;2.45;61.12;100531.94;5053232;28;20479;-71
2024/01/12 11:10:58;;;;;;;1.35;0.77;;;;;;;2.45;61.47;100519.34;5054463;28;20095;-72
2024/01/12 11:13:27;;;;;;;0.60;0.60;;;;;;;2.52;61.12;100524.72;5036528;28;20047;-70
2024/01/12 11:15:59;;;;;;;0.55;0.52;;;;;;;2.49;60.62;100519.56;5054193;28;20041;-71
2024/01/12 11:18:28;;;;;;;0.30;0.30;;;;;;;2.37;59.63;100514.00;5054371;28;20037;-71
2024/01/12 11:21:03;;;;;;;1.05;0.95;;;;;;;2.34;59.11;100518.88;5054344;28;20041;-71
2024/01/12 11:23:40;;;;;;;0.55;0.55;;;;;;;2.39;59.37;100516.56;5052859;28;20430;-70
2024/01/12 11:26:09;;;;;;;0.60;0.60;;;;;;;2.35;59.65;100518.06;5054035;28;20463;-72
2024/01/12 11:28:38;;;;;;;2.22;1.55;;;;;;;2.34;59.17;100516.34;5054364;28;20481;-71
2024/01/12 11:31:09;;;;;;;0.50;0.50;;;;;;;2.33;58.88;100522.19;5054190;28;20037;-71
2024/01/12 11:33:42;;;;;;;0.40;0.40;;;;;;;2.25;59.19;100518.47;5053809;28;20045;-71
2024/01/12 11:36:17;;;;;;;1.85;1.38;;;;;;;2.20;59.06;100489.69;5052855;28;20049;-72
2024/01/12 11:38:48;;;;;;;0.77;0.77;;;;;;;2.37;59.23;100508.94;5053724;28;20071;-71
2024/01/12 11:41:17;;;;;;;0.60;0.60;;;;;;;2.40;58.76;100509.06;5053764;28;20048;-71